Time;durP1;ratioP1;P1;durP2;ratioP2;P2;SDS_P1;SDS_P2;PMS_P1;PMS_P2;Temp;Humidity;BMP_temperature;BMP_pressure;BME280_temperature;BME280_humidity;BME280_pressure;Samples;Min_cycle;Max_cycle;Signal;HPM_P1;HPM_P2
2022/06/06 00:01:54;;;;;;;10.80;8.00;;;16.40;99.90;;;;;;5095134;28;20597;-73
2022/06/06 00:04:22;;;;;;;6.63;6.00;;;16.40;99.90;;;;;;5094703;28;20616;-74
2022/06/06 00:06:51;;;;;;;7.83;6.50;;;16.40;99.90;;;;;;5094479;28;20626;-74
2022/06/06 00:09:19;;;;;;;6.63;6.00;;;16.40;99.90;;;;;;5094536;28;20621;-73
2022/06/06 00:11:45;;;;;;;7.87;7.07;;;16.50;99.90;;;;;;5094561;28;20617;-74
2022/06/06 00:14:14;;;;;;;9.87;6.73;;;16.40;99.90;;;;;;5094439;28;20653;-74
2022/06/06 00:16:41;;;;;;;6.80;6.17;;;16.40;99.90;;;;;;5092701;28;20616;-74
2022/06/06 00:19:09;;;;;;;9.97;7.63;;;16.40;99.90;;;;;;5093619;28;20610;-74
2022/06/06 00:21:37;;;;;;;7.23;6.63;;;16.40;99.90;;;;;;5093612;28;20617;-75
2022/06/06 00:24:04;;;;;;;8.57;7.77;;;16.30;99.90;;;;;;5094282;28;20958;-75
2022/06/06 00:26:32;;;;;;;8.40;7.70;;;16.30;99.90;;;;;;5093199;28;20606;-76
2022/06/06 00:28:59;;;;;;;9.50;8.10;;;16.30;99.90;;;;;;5094540;28;20953;-76
2022/06/06 00:37:01;;;;;;;11.63;9.03;;;16.30;99.90;;;;;;5094713;28;20645;-75
2022/06/06 00:39:28;;;;;;;9.70;8.80;;;16.30;99.90;;;;;;5095546;28;20716;-76
2022/06/06 00:41:56;;;;;;;10.27;9.07;;;16.30;99.90;;;;;;5093621;28;20617;-74
2022/06/06 00:44:28;;;;;;;10.83;9.30;;;16.30;99.90;;;;;;5094692;28;20688;-76
2022/06/06 00:47:03;;;;;;;9.33;8.30;;;16.40;99.90;;;;;;5096258;28;20597;-75
2022/06/06 00:49:49;;;;;;;9.47;8.50;;;16.40;99.90;;;;;;5096198;28;20698;-75
2022/06/06 00:52:23;;;;;;;9.57;8.80;;;16.40;99.90;;;;;;5095664;28;20628;-76
2022/06/06 00:54:55;;;;;;;9.77;8.77;;;16.40;99.90;;;;;;5095118;28;20668;-75
2022/06/06 00:57:27;;;;;;;11.57;8.63;;;16.40;99.90;;;;;;5094330;28;20574;-75
2022/06/06 00:59:54;;;;;;;8.87;8.17;;;16.30;99.90;;;;;;5094559;28;21150;-74
2022/06/06 01:02:21;;;;;;;9.83;8.93;;;16.20;99.90;;;;;;5093963;28;20613;-74
2022/06/06 01:04:48;;;;;;;11.87;9.17;;;16.20;99.90;;;;;;5093705;28;21152;-73
2022/06/06 01:07:14;;;;;;;9.87;8.97;;;16.20;99.90;;;;;;5092773;28;20901;-75
2022/06/06 01:09:42;;;;;;;11.33;9.70;;;16.10;99.90;;;;;;5094476;28;20687;-75
2022/06/06 01:12:16;;;;;;;16.10;10.03;;;16.10;99.90;;;;;;5094257;28;21248;-75
2022/06/06 01:14:47;;;;;;;24.10;10.47;;;16.00;99.90;;;;;;5093629;28;20664;-75
2022/06/06 01:17:33;;;;;;;11.07;9.90;;;16.00;99.90;;;;;;5094165;28;20577;-75
2022/06/06 01:20:15;;;;;;;16.03;10.33;;;16.00;99.90;;;;;;5094733;28;20674;-75
2022/06/06 01:22:57;;;;;;;13.70;10.63;;;16.00;99.90;;;;;;5095552;28;20562;-75
2022/06/06 01:25:47;;;;;;;13.00;10.90;;;16.00;99.90;;;;;;5095289;28;20917;-75
2022/06/06 01:28:29;;;;;;;12.13;10.73;;;16.00;99.90;;;;;;5094769;28;20597;-75
2022/06/06 01:30:58;;;;;;;14.40;10.97;;;16.00;99.90;;;;;;5095446;28;20577;-75
2022/06/06 01:33:24;;;;;;;10.97;9.83;;;16.00;99.90;;;;;;5098780;28;21226;-75
2022/06/06 01:35:50;;;;;;;12.70;8.97;;;16.00;99.90;;;;;;5098970;28;20597;-75
2022/06/06 01:38:21;;;;;;;12.67;10.83;;;16.00;99.90;;;;;;5099206;28;20601;-75
2022/06/06 01:41:28;;;;;;;12.07;10.40;;;16.00;99.90;;;;;;5099412;28;20565;-75
2022/06/06 01:44:05;;;;;;;10.20;9.30;;;16.00;99.90;;;;;;5056208;28;21130;-75
2022/06/06 01:46:35;;;;;;;10.37;9.30;;;16.10;99.90;;;;;;5095422;28;20617;-75
2022/06/06 01:49:05;;;;;;;9.70;8.80;;;16.20;99.90;;;;;;5097906;28;20660;-75
2022/06/06 01:51:32;;;;;;;9.60;8.70;;;16.30;99.90;;;;;;5098691;28;20688;-75
2022/06/06 01:53:59;;;;;;;13.63;8.60;;;16.40;99.90;;;;;;5096984;28;20657;-75
2022/06/06 01:56:29;;;;;;;9.80;8.87;;;16.40;99.90;;;;;;5096773;28;20606;-75
2022/06/06 01:58:56;;;;;;;8.70;7.93;;;16.40;99.90;;;;;;5097147;28;21175;-75
2022/06/06 02:01:23;;;;;;;9.37;8.57;;;16.40;99.90;;;;;;5096646;28;20609;-75
2022/06/06 02:03:49;;;;;;;17.57;7.50;;;16.50;99.90;;;;;;5095832;28;20605;-75
2022/06/06 02:06:16;;;;;;;9.50;8.03;;;16.60;99.90;;;;;;5096565;28;20595;-75
2022/06/06 02:08:43;;;;;;;9.97;8.50;;;16.50;99.90;;;;;;5095453;28;20965;-75
2022/06/06 02:11:11;;;;;;;8.17;7.57;;;16.60;99.90;;;;;;5096500;28;20604;-75
2022/06/06 02:13:38;;;;;;;10.13;7.83;;;16.60;99.90;;;;;;5096203;28;20653;-75
2022/06/06 02:16:05;;;;;;;8.30;7.47;;;16.60;99.90;;;;;;5096726;28;20610;-74
2022/06/06 02:18:33;;;;;;;8.73;7.60;;;16.60;99.90;;;;;;5097753;28;20609;-75
2022/06/06 02:21:01;;;;;;;9.70;7.37;;;16.60;99.90;;;;;;5097450;28;20966;-75
2022/06/06 02:23:28;;;;;;;11.33;8.27;;;16.60;99.90;;;;;;5097594;28;21207;-74
2022/06/06 02:25:55;;;;;;;10.30;8.57;;;16.50;99.90;;;;;;5097749;28;20957;-75
2022/06/06 02:28:22;;;;;;;16.33;8.93;;;16.50;99.90;;;;;;5098383;28;20701;-75
2022/06/06 02:30:48;;;;;;;8.70;8.00;;;16.50;99.90;;;;;;5080313;28;20615;-75
2022/06/06 02:33:16;;;;;;;8.30;7.63;;;16.50;99.90;;;;;;5080250;28;20955;-74
2022/06/06 02:35:43;;;;;;;9.53;8.73;;;16.50;99.90;;;;;;5097270;28;20965;-75
2022/06/06 02:38:11;;;;;;;10.50;9.00;;;16.50;99.90;;;;;;5095444;28;21242;-75
2022/06/06 02:40:38;;;;;;;8.53;7.77;;;16.50;99.90;;;;;;5098106;28;20614;-75
2022/06/06 02:43:05;;;;;;;9.83;9.03;;;16.50;99.90;;;;;;5097287;28;20624;-75
2022/06/06 02:45:31;;;;;;;9.63;8.67;;;16.50;99.90;;;;;;5098101;28;21039;-75
2022/06/06 02:47:59;;;;;;;9.07;8.17;;;16.50;99.90;;;;;;5096843;28;20656;-75
2022/06/06 02:50:31;;;;;;;9.93;8.67;;;16.50;99.90;;;;;;5095841;28;20613;-75
2022/06/06 02:52:58;;;;;;;13.83;9.53;;;16.50;99.90;;;;;;5096960;28;20608;-75
2022/06/06 02:55:25;;;;;;;13.87;9.00;;;16.50;99.90;;;;;;5095592;28;20613;-75
2022/06/06 02:57:52;;;;;;;8.47;7.63;;;16.50;99.90;;;;;;5095685;28;20678;-75
2022/06/06 03:00:26;;;;;;;9.87;9.13;;;16.50;99.90;;;;;;5096864;28;20617;-75
2022/06/06 03:02:53;;;;;;;10.00;8.53;;;16.40;99.90;;;;;;5097313;28;20546;-75
2022/06/06 03:05:20;;;;;;;10.30;9.37;;;16.40;99.90;;;;;;5097157;28;21089;-75
2022/06/06 03:08:01;;;;;;;9.10;8.30;;;16.40;99.90;;;;;;5097100;28;20612;-75
2022/06/06 03:10:40;;;;;;;9.47;8.60;;;16.40;99.90;;;;;;5097125;28;21084;-75
2022/06/06 03:13:12;;;;;;;12.40;10.57;;;16.40;99.90;;;;;;5095468;28;20565;-75
2022/06/06 03:22:29;;;;;;;9.60;8.60;;;16.40;99.90;;;;;;5095678;28;20595;-75
2022/06/06 03:25:19;;;;;;;9.33;8.43;;;16.50;99.90;;;;;;5095463;28;20555;-75
2022/06/06 03:28:33;;;;;;;7.73;7.13;;;16.60;99.90;;;;;;5095322;28;20578;-75
2022/06/06 03:31:37;;;;;;;8.10;7.43;;;16.60;99.90;;;;;;5095231;28;20612;-75
2022/06/06 03:34:21;;;;;;;8.13;6.90;;;16.70;99.90;;;;;;5095402;28;20657;-75
2022/06/06 03:36:53;;;;;;;8.13;7.33;;;16.70;99.90;;;;;;5096458;28;21156;-75
2022/06/06 03:39:43;;;;;;;8.30;7.60;;;16.80;99.90;;;;;;5097134;28;20763;-75
2022/06/06 03:42:53;;;;;;;8.57;7.67;;;16.80;99.90;;;;;;5095441;28;20632;-75
2022/06/06 03:45:41;;;;;;;8.63;7.17;;;16.80;99.90;;;;;;5096185;28;20614;-75
2022/06/06 03:48:16;;;;;;;8.10;7.33;;;16.80;99.90;;;;;;5096494;28;20644;-75
2022/06/06 03:51:11;;;;;;;8.10;7.40;;;16.80;99.90;;;;;;5094834;28;20712;-75
2022/06/06 03:54:13;;;;;;;10.00;8.33;;;16.80;99.90;;;;;;5092048;28;20665;-75
2022/06/06 03:57:20;;;;;;;7.33;6.73;;;16.80;99.90;;;;;;5093623;28;20902;-75
2022/06/06 03:59:53;;;;;;;7.83;7.03;;;16.80;99.90;;;;;;5095171;28;20609;-75
2022/06/06 04:02:24;;;;;;;8.23;7.30;;;16.80;99.90;;;;;;5094893;28;20601;-75
2022/06/06 04:04:52;;;;;;;7.80;7.10;;;16.80;99.90;;;;;;5094795;28;20635;-76
2022/06/06 04:07:18;;;;;;;7.50;6.90;;;16.80;99.90;;;;;;5092763;28;20625;-75
2022/06/06 04:09:47;;;;;;;7.23;6.57;;;16.90;99.90;;;;;;5093297;28;20634;-76
2022/06/06 04:12:24;;;;;;;11.43;6.93;;;16.90;99.90;;;;;;5094305;28;21086;-76
2022/06/06 04:14:58;;;;;;;6.57;6.10;;;16.90;99.90;;;;;;5093088;28;20663;-75
2022/06/06 04:18:26;;;;;;;6.90;5.97;;;16.80;99.90;;;;;;5094373;28;20941;-75
2022/06/06 04:21:07;;;;;;;6.90;6.30;;;16.80;99.90;;;;;;4995976;28;21252;-73
2022/06/06 04:24:28;;;;;;;9.13;6.70;;;16.90;99.90;;;;;;5086390;28;20678;-73
2022/06/06 04:27:12;;;;;;;6.17;5.67;;;16.90;99.90;;;;;;5052096;28;20641;-75
2022/06/06 04:30:07;;;;;;;6.27;5.67;;;16.90;99.90;;;;;;5093155;28;20582;-75
2022/06/06 04:32:51;;;;;;;10.80;5.97;;;16.90;99.90;;;;;;5094470;28;20573;-75
2022/06/06 04:35:44;;;;;;;6.60;6.20;;;17.00;99.90;;;;;;5094075;28;20657;-75
2022/06/06 04:38:22;;;;;;;6.13;5.73;;;17.00;99.90;;;;;;5088417;28;20621;-75
2022/06/06 04:41:01;;;;;;;5.93;5.43;;;17.00;99.90;;;;;;5094122;28;20601;-75
2022/06/06 04:43:49;;;;;;;7.57;6.07;;;17.10;99.90;;;;;;5094004;28;20572;-75
2022/06/06 04:46:33;;;;;;;8.23;5.20;;;17.20;99.90;;;;;;5094203;28;20627;-75
2022/06/06 04:49:00;;;;;;;5.90;5.47;;;17.20;99.90;;;;;;5093685;28;20653;-75
2022/06/06 04:51:27;;;;;;;8.87;5.47;;;17.20;99.90;;;;;;5093840;28;20601;-76
2022/06/06 04:53:56;;;;;;;7.03;5.50;;;17.30;99.90;;;;;;5093805;28;20993;-75
2022/06/06 04:56:24;;;;;;;7.17;6.33;;;17.20;99.90;;;;;;5093749;28;20686;-75
2022/06/06 04:58:52;;;;;;;6.77;5.83;;;17.20;99.90;;;;;;5092811;28;20655;-75
2022/06/06 05:01:19;;;;;;;5.03;4.63;;;17.20;99.90;;;;;;5093840;28;20645;-75
2022/06/06 05:03:45;;;;;;;5.97;5.33;;;17.20;99.90;;;;;;5092185;28;20625;-75
2022/06/06 05:06:37;;;;;;;5.47;4.97;;;17.10;99.90;;;;;;5093824;28;20613;-75
2022/06/06 05:09:22;;;;;;;6.67;6.03;;;17.20;99.90;;;;;;5093849;28;20582;-75
2022/06/06 05:12:16;;;;;;;9.23;5.30;;;17.20;99.90;;;;;;5093643;28;20574;-75
2022/06/06 05:14:57;;;;;;;8.20;5.97;;;17.20;99.90;;;;;;5092019;28;20656;-75
2022/06/06 05:17:30;;;;;;;5.87;5.37;;;17.30;99.90;;;;;;5093446;28;20613;-76
2022/06/06 05:20:16;;;;;;;6.13;5.67;;;17.30;99.90;;;;;;5093325;28;20570;-75
2022/06/06 05:23:01;;;;;;;5.63;5.10;;;17.30;99.90;;;;;;5093308;28;20670;-75
2022/06/06 05:25:57;;;;;;;6.30;5.67;;;17.40;99.90;;;;;;5093363;28;20589;-75
2022/06/06 05:28:37;;;;;;;6.10;5.70;;;17.40;99.90;;;;;;5093235;28;20621;-75
2022/06/06 05:31:40;;;;;;;8.03;6.23;;;17.40;99.90;;;;;;5093453;28;20588;-75
2022/06/06 05:34:34;;;;;;;5.93;5.37;;;17.40;99.90;;;;;;5092939;28;20661;-75
2022/06/06 05:37:36;;;;;;;5.93;5.47;;;17.40;99.90;;;;;;5093880;28;20576;-75
2022/06/06 05:40:17;;;;;;;6.13;5.30;;;17.30;99.90;;;;;;5080100;28;20620;-75
2022/06/06 05:43:15;;;;;;;7.00;5.67;;;17.40;99.90;;;;;;5093066;28;20638;-75
2022/06/06 05:46:10;;;;;;;7.60;5.20;;;17.50;99.90;;;;;;5093277;28;20590;-76
2022/06/06 05:48:53;;;;;;;6.80;6.13;;;17.50;99.90;;;;;;5092773;28;20664;-75
2022/06/06 05:51:29;;;;;;;6.47;5.93;;;17.70;99.90;;;;;;5093446;28;20942;-75
2022/06/06 05:54:13;;;;;;;5.50;5.03;;;17.80;99.90;;;;;;5093110;28;20664;-75
2022/06/06 05:57:06;;;;;;;5.97;5.47;;;17.90;99.90;;;;;;5093344;28;20570;-75
2022/06/06 06:00:03;;;;;;;5.80;5.40;;;17.80;99.90;;;;;;5093149;28;21143;-75
2022/06/06 06:03:06;;;;;;;5.87;5.37;;;17.80;99.90;;;;;;5092698;28;20610;-75
2022/06/06 06:05:50;;;;;;;5.70;5.30;;;17.80;99.90;;;;;;5092800;28;20577;-75
2022/06/06 06:08:34;;;;;;;6.17;5.07;;;17.90;99.90;;;;;;5092993;28;21130;-75
2022/06/06 06:11:42;;;;;;;11.50;5.70;;;18.00;99.90;;;;;;5093273;28;20569;-75
2022/06/06 06:14:18;;;;;;;5.30;4.80;;;17.90;99.90;;;;;;5092734;28;20637;-75
2022/06/06 06:16:50;;;;;;;5.97;5.37;;;18.00;99.90;;;;;;5093521;28;20954;-75
2022/06/06 06:19:22;;;;;;;5.60;5.20;;;18.00;99.90;;;;;;5096770;28;20573;-75
2022/06/06 06:21:54;;;;;;;6.43;4.90;;;18.20;99.90;;;;;;5096086;28;20624;-75
2022/06/06 06:24:41;;;;;;;5.30;4.80;;;18.40;99.90;;;;;;5096894;28;20578;-75
2022/06/06 06:27:08;;;;;;;5.10;4.70;;;18.60;99.90;;;;;;5096637;28;20565;-75
2022/06/06 06:29:34;;;;;;;6.20;4.60;;;18.60;99.90;;;;;;5096206;28;20612;-75
2022/06/06 06:32:55;;;;;;;5.30;4.80;;;18.70;99.90;;;;;;5096336;28;20613;-75
2022/06/06 06:35:40;;;;;;;4.97;4.67;;;18.80;99.90;;;;;;5054085;28;21074;-75
2022/06/06 06:38:34;;;;;;;5.57;4.67;;;18.80;99.90;;;;;;5053296;28;20614;-75
2022/06/06 06:41:50;;;;;;;5.00;4.70;;;18.80;99.90;;;;;;5087599;28;20632;-75
2022/06/06 06:44:34;;;;;;;5.67;4.37;;;18.90;99.90;;;;;;5053293;28;21042;-75
2022/06/06 06:47:13;;;;;;;4.60;4.17;;;19.00;99.90;;;;;;5053382;28;20666;-75
2022/06/06 06:49:44;;;;;;;9.30;4.57;;;18.90;99.90;;;;;;5075259;28;20624;-75
2022/06/06 06:52:25;;;;;;;4.07;3.70;;;18.90;99.90;;;;;;5095700;28;21203;-75
2022/06/06 06:55:26;;;;;;;6.10;4.80;;;19.00;99.90;;;;;;5095910;28;20621;-75
2022/06/06 06:58:15;;;;;;;5.03;4.60;;;19.00;99.90;;;;;;5090953;28;20621;-75
2022/06/06 07:01:00;;;;;;;7.37;4.97;;;18.90;99.90;;;;;;5076208;28;20621;-75
2022/06/06 07:09:59;;;;;;;5.03;4.63;;;18.70;99.90;;;;;;5095417;28;20676;-75
2022/06/06 07:12:59;;;;;;;4.03;3.83;;;18.60;99.90;;;;;;5095705;28;20601;-75
2022/06/06 07:15:45;;;;;;;4.97;4.63;;;18.60;99.90;;;;;;5095669;28;20848;-75
2022/06/06 07:18:15;;;;;;;9.77;4.97;;;18.60;99.90;;;;;;5095534;28;21011;-75
2022/06/06 07:20:46;;;;;;;5.23;4.83;;;18.70;99.90;;;;;;5095867;28;20597;-75
2022/06/06 07:23:14;;;;;;;5.17;4.70;;;18.80;99.90;;;;;;5095461;28;20577;-75
2022/06/06 07:25:46;;;;;;;7.47;5.77;;;19.20;99.90;;;;;;5095706;28;20613;-75
2022/06/06 07:28:22;;;;;;;4.37;4.07;;;19.60;99.90;;;;;;5096124;28;20584;-74
2022/06/06 07:31:33;;;;;;;5.33;4.93;;;19.70;99.90;;;;;;5095345;28;20628;-75
2022/06/06 07:34:15;;;;;;;5.47;5.00;;;19.60;99.90;;;;;;5078768;28;21187;-75
2022/06/06 07:37:12;;;;;;;4.90;4.50;;;19.60;99.90;;;;;;5095177;28;21135;-75
2022/06/06 07:39:59;;;;;;;5.00;4.60;;;19.70;99.90;;;;;;5095336;28;20574;-74
2022/06/06 07:42:47;;;;;;;5.30;4.83;;;19.90;99.90;;;;;;5094918;28;20569;-75
2022/06/06 07:45:41;;;;;;;4.67;4.30;;;20.40;99.90;;;;;;5093700;28;20639;-75
2022/06/06 07:48:23;;;;;;;4.47;4.17;;;20.70;99.90;;;;;;5094213;28;20657;-75
2022/06/06 07:51:26;;;;;;;4.40;3.87;;;20.40;99.90;;;;;;5094185;28;20617;-75
2022/06/06 07:54:05;;;;;;;4.17;3.80;;;20.40;99.90;;;;;;5094276;28;20594;-75
2022/06/06 07:56:55;;;;;;;4.77;4.37;;;20.90;99.90;;;;;;5094308;28;20611;-75
2022/06/06 07:59:50;;;;;;;5.43;4.03;;;21.00;99.90;;;;;;5094125;28;20677;-75
2022/06/06 08:02:32;;;;;;;4.30;4.00;;;21.30;99.90;;;;;;5093902;28;20992;-74
2022/06/06 08:05:25;;;;;;;4.43;4.13;;;21.00;99.90;;;;;;5094744;28;20573;-74
2022/06/06 08:08:19;;;;;;;5.30;4.00;;;21.40;99.90;;;;;;5094599;28;20573;-74
2022/06/06 08:10:47;;;;;;;4.07;3.77;;;21.20;99.90;;;;;;5094460;28;20600;-74
2022/06/06 08:13:37;;;;;;;5.63;4.07;;;21.20;99.90;;;;;;5094400;28;20668;-75
2022/06/06 08:16:07;;;;;;;3.50;3.30;;;21.40;99.90;;;;;;5094274;28;20625;-74
2022/06/06 08:18:51;;;;;;;5.50;3.17;;;21.30;99.90;;;;;;5094500;28;20614;-75
2022/06/06 08:21:39;;;;;;;3.87;3.40;;;21.00;99.90;;;;;;5094153;28;20581;-74
2022/06/06 08:24:09;;;;;;;4.47;4.07;;;21.10;99.90;;;;;;5094262;28;20625;-74
2022/06/06 08:26:41;;;;;;;3.73;3.53;;;21.10;99.90;;;;;;5094647;28;20574;-74
2022/06/06 08:29:09;;;;;;;6.30;3.30;;;21.10;99.90;;;;;;5093082;28;20614;-75
2022/06/06 08:31:36;;;;;;;8.47;3.90;;;20.60;99.90;;;;;;5093698;28;21019;-75
2022/06/06 08:34:03;;;;;;;4.00;3.70;;;20.40;99.90;;;;;;5094147;28;20610;-74
2022/06/06 08:36:51;;;;;;;7.40;3.70;;;20.30;99.90;;;;;;5093712;28;20601;-74
2022/06/06 08:39:38;;;;;;;3.90;3.20;;;20.20;99.90;;;;;;5093603;28;21136;-74
2022/06/06 08:42:18;;;;;;;3.53;3.33;;;20.40;99.90;;;;;;5094261;28;20973;-75
2022/06/06 08:44:45;;;;;;;3.80;3.60;;;20.60;99.90;;;;;;5093308;28;21236;-75
2022/06/06 08:47:30;;;;;;;4.40;4.00;;;20.60;99.90;;;;;;5093425;28;20634;-75
2022/06/06 08:50:46;;;;;;;3.33;3.13;;;21.30;99.90;;;;;;5093657;28;20576;-74
2022/06/06 08:53:41;;;;;;;3.67;3.37;;;21.70;99.90;;;;;;5093635;28;20611;-75
2022/06/06 08:56:53;;;;;;;3.60;3.30;;;21.40;99.90;;;;;;5093297;28;21226;-75
2022/06/06 08:59:48;;;;;;;4.73;3.70;;;21.20;99.90;;;;;;5093641;28;20561;-74
2022/06/06 09:02:56;;;;;;;4.77;4.00;;;21.20;99.90;;;;;;5093276;28;21221;-75
2022/06/06 09:05:51;;;;;;;3.57;3.30;;;21.50;99.90;;;;;;5093486;28;20613;-75
2022/06/06 09:08:37;;;;;;;4.50;4.10;;;21.40;99.90;;;;;;5093534;28;20601;-75
2022/06/06 09:11:41;;;;;;;13.17;4.20;;;21.70;99.90;;;;;;5091970;28;20994;-75
2022/06/06 09:14:19;;;;;;;3.80;3.50;;;21.60;99.90;;;;;;5093341;28;20597;-74
2022/06/06 09:16:51;;;;;;;3.50;3.30;;;22.20;99.90;;;;;;5093342;28;20650;-76
2022/06/06 09:19:36;;;;;;;3.90;3.27;;;21.80;99.90;;;;;;5091793;28;20643;-75
2022/06/06 09:22:11;;;;;;;3.30;3.10;;;21.80;99.90;;;;;;5093466;28;20605;-74
2022/06/06 09:25:11;;;;;;;3.33;2.70;;;21.50;99.90;;;;;;5091707;28;20629;-75
2022/06/06 09:28:12;;;;;;;2.20;2.10;;;21.30;99.90;;;;;;5093191;28;20578;-75
2022/06/06 09:30:57;;;;;;;7.33;2.90;;;21.60;99.90;;;;;;5093046;28;20573;-75
2022/06/06 09:33:32;;;;;;;4.53;2.67;;;21.70;99.90;;;;;;5093239;28;20573;-75
2022/06/06 09:36:11;;;;;;;3.00;2.80;;;21.70;99.90;;;;;;5092615;28;20687;-75
2022/06/06 09:38:40;;;;;;;2.70;2.60;;;21.90;99.90;;;;;;5092729;28;21006;-74
2022/06/06 09:41:30;;;;;;;2.93;2.83;;;22.40;99.90;;;;;;5093349;28;20651;-75
2022/06/06 09:44:05;;;;;;;3.30;2.30;;;22.70;99.90;;;;;;5093170;28;20577;-74
2022/06/06 09:47:04;;;;;;;7.73;2.70;;;23.00;99.90;;;;;;5092776;28;21001;-75
2022/06/06 09:49:47;;;;;;;3.00;2.77;;;22.30;99.90;;;;;;5093088;28;20613;-75
2022/06/06 09:52:17;;;;;;;2.50;2.30;;;22.80;99.90;;;;;;5094429;28;20627;-75
2022/06/06 10:01:05;;;;;;;2.60;2.40;;;22.80;99.90;;;;;;5097470;28;20928;-75
2022/06/06 10:04:06;;;;;;;3.83;3.10;;;22.40;99.90;;;;;;5096746;28;20605;-75
2022/06/06 10:07:18;;;;;;;6.07;3.00;;;22.50;99.90;;;;;;5096412;28;21199;-75
2022/06/06 10:10:06;;;;;;;2.60;2.50;;;22.50;99.90;;;;;;5090737;28;21285;-75
2022/06/06 10:13:04;;;;;;;2.93;2.73;;;23.00;99.90;;;;;;5096573;28;20624;-75
2022/06/06 10:16:04;;;;;;;3.70;3.00;;;22.80;99.90;;;;;;5096130;28;20665;-75
2022/06/06 10:18:47;;;;;;;3.40;3.10;;;22.70;99.90;;;;;;5096761;28;20730;-75
2022/06/06 10:21:44;;;;;;;2.90;2.70;;;22.70;99.90;;;;;;5096376;28;20577;-75
2022/06/06 10:24:29;;;;;;;5.00;2.77;;;22.60;99.90;;;;;;5096388;28;20605;-74
2022/06/06 10:27:25;;;;;;;2.83;2.63;;;23.20;99.90;;;;;;5096277;28;20627;-73
2022/06/06 10:30:12;;;;;;;5.43;3.43;;;23.30;99.90;;;;;;5096350;28;20625;-74
2022/06/06 10:32:48;;;;;;;7.93;3.37;;;23.70;99.90;;;;;;5095360;28;20621;-75
2022/06/06 10:35:17;;;;;;;3.43;3.13;;;24.10;99.90;;;;;;5096884;28;20648;-74
2022/06/06 10:37:56;;;;;;;7.43;2.60;;;23.90;99.90;;;;;;5096347;28;20662;-75
2022/06/06 10:40:36;;;;;;;2.43;2.33;;;23.50;99.90;;;;;;5096680;28;21060;-75
2022/06/06 10:43:31;;;;;;;4.03;2.90;;;23.80;99.90;;;;;;5096322;28;20572;-74
2022/06/06 10:46:08;;;;;;;2.43;2.20;;;23.60;99.90;;;;;;5078054;28;20969;-75
2022/06/06 10:49:02;;;;;;;2.90;2.40;;;23.80;99.90;;;;;;5095792;28;20664;-74
2022/06/06 10:51:45;;;;;;;2.27;1.97;;;23.80;99.90;;;;;;5096261;28;20577;-75
2022/06/06 10:54:49;;;;;;;3.13;2.30;;;24.10;99.90;;;;;;5095953;28;20701;-75
2022/06/06 10:57:39;;;;;;;3.23;2.47;;;24.20;99.90;;;;;;5096015;28;20632;-75
2022/06/06 11:00:38;;;;;;;2.57;2.40;;;24.70;99.90;;;;;;5095874;28;20619;-75
2022/06/06 11:03:42;;;;;;;5.00;2.20;;;24.90;99.90;;;;;;5095368;28;20566;-75
2022/06/06 11:06:38;;;;;;;10.00;2.20;;;25.30;99.90;;;;;;5095566;28;20605;-75
2022/06/06 11:09:46;;;;;;;5.53;2.37;;;24.80;99.90;;;;;;5095154;28;20593;-75
2022/06/06 11:12:33;;;;;;;6.83;3.07;;;24.20;99.90;;;;;;5095189;28;20976;-75
2022/06/06 11:15:02;;;;;;;2.93;2.10;;;24.90;99.90;;;;;;5095303;28;20687;-75
2022/06/06 11:17:34;;;;;;;4.80;2.50;;;25.00;99.90;;;;;;5095240;28;21006;-75
2022/06/06 11:20:09;;;;;;;3.73;2.30;;;25.00;99.90;;;;;;5095600;28;20605;-75
2022/06/06 11:22:43;;;;;;;3.93;2.10;;;23.60;99.90;;;;;;5095076;28;20942;-75
2022/06/06 11:25:13;;;;;;;2.10;2.00;;;23.60;99.90;;;;;;5095495;28;20609;-74
2022/06/06 11:28:01;;;;;;;5.23;2.00;;;23.60;99.90;;;;;;5095465;28;20578;-75
2022/06/06 11:31:15;;;;;;;2.43;1.90;;;24.90;99.90;;;;;;5095053;28;21186;-75
2022/06/06 11:34:09;;;;;;;21.77;2.23;;;24.60;99.90;;;;;;5060344;28;20634;-75
2022/06/06 11:36:54;;;;;;;1.90;1.80;;;23.50;99.90;;;;;;5094675;28;20636;-75
2022/06/06 11:39:58;;;;;;;3.43;2.50;;;23.20;99.90;;;;;;5094989;28;20606;-75
2022/06/06 11:42:46;;;;;;;4.80;2.40;;;23.10;99.90;;;;;;5095381;28;20613;-75
2022/06/06 11:45:50;;;;;;;2.77;2.27;;;23.00;99.90;;;;;;5095889;28;20586;-75
2022/06/06 11:48:38;;;;;;;2.20;2.00;;;22.90;99.90;;;;;;5095602;28;20653;-75
2022/06/06 11:51:13;;;;;;;3.20;3.00;;;22.50;99.90;;;;;;5095727;28;20566;-75
2022/06/06 11:53:57;;;;;;;3.87;2.30;;;22.30;99.90;;;;;;5095832;28;20605;-75
2022/06/06 11:57:18;;;;;;;2.07;1.67;;;22.70;99.90;;;;;;5095103;28;20689;-75
2022/06/06 12:00:29;;;;;;;2.40;2.07;;;22.60;99.90;;;;;;5087337;28;21042;-74
2022/06/06 12:03:24;;;;;;;2.30;2.13;;;23.40;99.90;;;;;;5094712;28;20975;-75
2022/06/06 12:06:12;;;;;;;2.90;2.47;;;24.40;99.90;;;;;;5075121;28;20674;-75
2022/06/06 12:08:49;;;;;;;3.00;2.50;;;24.80;99.90;;;;;;5093556;28;20689;-75
2022/06/06 12:11:25;;;;;;;3.73;3.20;;;24.00;99.90;;;;;;5094526;28;21115;-75
2022/06/06 12:14:29;;;;;;;3.67;3.23;;;23.70;99.90;;;;;;5094302;28;20960;-75
2022/06/06 12:17:10;;;;;;;2.57;2.47;;;23.00;99.90;;;;;;5094804;28;21235;-75
2022/06/06 12:20:03;;;;;;;3.77;2.80;;;22.90;99.90;;;;;;5094670;28;21156;-75
2022/06/06 12:22:59;;;;;;;5.73;3.30;;;22.60;99.90;;;;;;5094107;28;20621;-74
2022/06/06 12:25:53;;;;;;;3.43;2.53;;;23.40;99.90;;;;;;5094273;28;20565;-75
2022/06/06 12:28:38;;;;;;;3.77;2.80;;;24.10;99.90;;;;;;5092725;28;20636;-75
2022/06/06 12:31:26;;;;;;;2.63;2.43;;;24.20;99.90;;;;;;5094017;28;20589;-74
2022/06/06 12:34:12;;;;;;;3.00;2.70;;;23.90;99.90;;;;;;5094285;28;20577;-75
2022/06/06 12:36:50;;;;;;;2.70;2.30;;;23.90;99.90;;;;;;5094034;28;21223;-75
2022/06/06 12:39:25;;;;;;;6.20;5.63;;;24.10;99.90;;;;;;5092227;28;20606;-75
2022/06/06 12:42:16;;;;;;;5.10;4.10;;;24.50;99.90;;;;;;5093853;28;20577;-75
2022/06/06 12:45:10;;;;;;;2.90;2.70;;;24.20;99.90;;;;;;5093943;28;20622;-75
2022/06/06 12:47:58;;;;;;;4.33;2.20;;;23.80;99.90;;;;;;5093896;28;20725;-74
2022/06/06 12:50:31;;;;;;;2.10;2.00;;;23.40;99.90;;;;;;5101938;28;20672;-74
2022/06/06 12:53:45;;;;;;;1.97;1.87;;;23.60;99.90;;;;;;5096297;28;20574;-76
2022/06/06 12:56:45;;;;;;;2.03;1.93;;;24.00;99.90;;;;;;5075173;28;20683;-76
2022/06/06 12:59:38;;;;;;;3.10;2.40;;;24.00;99.90;;;;;;5093569;28;20628;-75
2022/06/06 13:02:40;;;;;;;2.40;2.20;;;23.70;99.90;;;;;;5092573;28;20614;-74
2022/06/06 13:05:34;;;;;;;2.10;1.90;;;23.60;99.90;;;;;;5094456;28;20613;-75
2022/06/06 13:08:41;;;;;;;3.63;2.17;;;23.50;99.90;;;;;;5094217;28;20662;-74
2022/06/06 13:11:12;;;;;;;3.13;1.90;;;24.20;99.90;;;;;;5093828;28;20976;-74
2022/06/06 13:13:41;;;;;;;3.47;1.87;;;24.70;99.90;;;;;;5075936;28;20700;-74
2022/06/06 13:16:32;;;;;;;2.77;1.80;;;24.70;99.90;;;;;;5093699;28;21223;-75
2022/06/06 13:19:29;;;;;;;2.00;1.90;;;24.20;99.90;;;;;;5093585;28;21001;-75
2022/06/06 13:22:14;;;;;;;2.40;2.10;;;24.10;99.90;;;;;;5093490;28;20589;-75
2022/06/06 13:25:06;;;;;;;2.40;2.20;;;24.60;99.90;;;;;;5093455;28;20572;-75
2022/06/06 13:27:51;;;;;;;2.23;2.00;;;24.20;99.90;;;;;;5096590;28;21131;-75
2022/06/06 13:30:24;;;;;;;2.67;2.03;;;24.10;99.90;;;;;;5096226;28;21186;-74
2022/06/06 13:33:39;;;;;;;2.30;2.10;;;24.30;99.90;;;;;;5097417;28;20597;-73
2022/06/06 13:36:20;;;;;;;1.60;1.60;;;24.50;99.90;;;;;;5087621;28;20993;-74
2022/06/06 13:39:16;;;;;;;2.03;1.90;;;23.80;99.90;;;;;;5096242;28;20605;-74
2022/06/06 13:42:12;;;;;;;1.80;1.70;;;23.60;99.90;;;;;;5097548;28;20568;-75
2022/06/06 13:45:05;;;;;;;2.10;2.00;;;23.90;99.90;;;;;;5077534;28;21164;-75
2022/06/06 13:47:46;;;;;;;3.07;2.00;;;23.50;99.90;;;;;;5097092;28;20641;-75
2022/06/06 13:50:18;;;;;;;3.20;1.93;;;23.40;99.90;;;;;;5096788;28;21062;-75
2022/06/06 13:53:24;;;;;;;1.93;1.83;;;23.90;99.90;;;;;;5096809;28;20546;-75
2022/06/06 13:56:18;;;;;;;3.60;2.03;;;23.80;99.90;;;;;;5096973;28;20643;-75
2022/06/06 13:59:13;;;;;;;1.57;1.47;;;23.10;99.90;;;;;;5097477;28;20613;-75
2022/06/06 14:02:00;;;;;;;1.70;1.60;;;23.10;99.90;;;;;;5090050;28;20975;-76
2022/06/06 14:04:44;;;;;;;1.83;1.70;;;23.10;99.90;;;;;;5097411;28;21159;-75
2022/06/06 14:07:44;;;;;;;2.80;2.10;;;22.80;99.90;;;;;;5097188;28;21037;-75
2022/06/06 14:10:16;;;;;;;2.40;1.67;;;22.90;99.90;;;;;;5096841;28;20638;-75
2022/06/06 14:13:22;;;;;;;2.00;1.90;;;22.80;99.90;;;;;;5096894;28;20624;-76
2022/06/06 14:15:48;;;;;;;1.93;1.50;;;22.40;99.90;;;;;;5094801;28;20656;-75
2022/06/06 14:18:26;;;;;;;1.70;1.60;;;22.20;99.90;;;;;;5096918;28;21166;-75
2022/06/06 14:20:57;;;;;;;2.03;1.90;;;22.50;99.90;;;;;;5097322;28;20577;-75
2022/06/06 14:23:31;;;;;;;2.90;1.60;;;22.60;99.90;;;;;;5096950;28;20581;-75
2022/06/06 14:26:02;;;;;;;4.83;2.07;;;22.70;99.90;;;;;;5096929;28;20599;-75
2022/06/06 14:28:34;;;;;;;1.90;1.80;;;22.50;99.90;;;;;;5096794;28;20585;-75
2022/06/06 14:31:05;;;;;;;2.57;1.60;;;23.10;99.90;;;;;;5096658;28;20597;-75